createdAt,value
2022-11-18T00:03:02.262Z,2.40
2022-11-18T00:13:27.146Z,2.30
2022-11-18T00:23:33.953Z,2.51
2022-11-18T00:33:40.244Z,2.35
2022-11-18T00:43:46.509Z,2.35
2022-11-18T00:53:52.808Z,2.40
2022-11-18T01:03:59.041Z,2.38
2022-11-18T01:14:05.325Z,2.27
2022-11-18T01:24:11.571Z,2.65
2022-11-18T01:34:17.863Z,2.56
2022-11-18T01:45:03.419Z,2.28
2022-11-18T01:55:16.754Z,2.38
2022-11-18T02:05:23.033Z,2.36
2022-11-18T02:15:56.424Z,2.33
2022-11-18T02:26:11.881Z,2.21
2022-11-18T02:36:31.769Z,2.35
2022-11-18T02:46:40.629Z,2.33
2022-11-18T02:56:47.680Z,2.31
2022-11-18T03:07:32.779Z,2.02
2022-11-18T03:17:57.811Z,2.25
2022-11-18T03:28:11.500Z,2.35
2022-11-18T03:38:21.819Z,2.40
2022-11-18T03:48:31.674Z,2.42
2022-11-18T03:58:43.797Z,2.45
2022-11-18T04:08:56.584Z,2.38
2022-11-18T04:19:06.188Z,2.49
2022-11-18T04:29:13.034Z,2.09
2022-11-18T04:39:19.672Z,2.25
2022-11-18T04:49:26.718Z,2.03
2022-11-18T04:59:33.215Z,2.03
2022-11-18T05:09:39.834Z,1.77
2022-11-18T05:19:46.121Z,1.89
2022-11-18T05:29:52.704Z,1.93
2022-11-18T05:39:58.982Z,1.90
2022-11-18T05:50:05.508Z,1.80
2022-11-18T06:00:12.437Z,1.92
2022-11-18T06:10:31.389Z,1.63
2022-11-18T06:20:39.402Z,1.75
2022-11-18T06:30:45.792Z,1.79
2022-11-18T06:40:52.878Z,1.86
2022-11-18T06:50:59.139Z,1.67
2022-11-18T07:01:20.496Z,1.96
2022-11-18T07:11:27.827Z,1.94
2022-11-18T07:21:34.146Z,1.92
2022-11-18T07:31:41.089Z,2.04
2022-11-18T07:41:47.376Z,1.96
2022-11-18T07:51:53.931Z,1.74
2022-11-18T08:02:01.308Z,1.90
2022-11-18T08:12:07.894Z,1.72
2022-11-18T08:22:14.282Z,1.76
2022-11-18T08:32:20.551Z,1.95
2022-11-18T08:42:29.981Z,2.13
2022-11-18T08:52:40.485Z,2.15
2022-11-18T09:02:47.718Z,2.18
2022-11-18T09:12:54.840Z,2.15
2022-11-18T09:23:01.170Z,2.47
2022-11-18T09:33:08.316Z,2.38
2022-11-18T09:43:21.456Z,2.17
2022-11-18T09:53:29.120Z,2.44
2022-11-18T10:03:35.512Z,1.87
2022-11-18T10:14:02.651Z,2.26
2022-11-18T10:24:21.478Z,2.33
2022-11-18T10:34:27.902Z,2.15
2022-11-18T10:44:38.635Z,2.14
2022-11-18T10:54:45.143Z,2.21
2022-11-18T11:04:52.807Z,2.01
2022-11-18T11:15:06.804Z,2.12
2022-11-18T11:36:05.089Z,2.30
2022-11-18T11:46:11.221Z,2.42
2022-11-18T11:56:25.985Z,2.11
2022-11-18T12:06:32.352Z,1.95
2022-11-18T12:17:07.044Z,1.61
2022-11-18T12:27:25.436Z,1.49
2022-11-18T12:37:31.654Z,1.35
2022-11-18T12:47:43.863Z,1.40
2022-11-18T12:57:50.076Z,1.33
2022-11-18T13:08:15.648Z,1.28
2022-11-18T13:18:22.588Z,1.14
2022-11-18T13:28:53.604Z,1.40
2022-11-18T13:39:05.899Z,1.54
2022-11-18T13:49:16.164Z,1.37
2022-11-18T13:59:24.878Z,1.13
2022-11-18T14:09:32.137Z,1.19
2022-11-18T14:19:39.244Z,0.55
2022-11-18T14:29:51.839Z,0.98
2022-11-18T14:39:59.281Z,1.18
2022-11-18T14:50:16.638Z,0.86
2022-11-18T15:00:22.897Z,0.95
2022-11-18T15:10:29.176Z,1.29
2022-11-18T15:20:35.773Z,0.99
2022-11-18T15:30:41.987Z,1.14
2022-11-18T15:40:48.296Z,0.85
2022-11-18T15:50:54.592Z,0.75
2022-11-18T16:01:00.886Z,1.33
2022-11-18T16:11:25.760Z,1.10
2022-11-18T16:21:34.657Z,1.13
2022-11-18T16:31:41.052Z,0.86
2022-11-18T16:41:47.331Z,0.91
2022-11-18T16:51:56.040Z,0.30
2022-11-18T17:02:03.282Z,0.35
2022-11-18T17:12:09.938Z,0.18
2022-11-18T17:22:16.213Z,0.46
2022-11-18T17:32:22.448Z,0.23
2022-11-18T17:42:28.817Z,0.54
2022-11-18T17:52:35.100Z,0.58
2022-11-18T18:02:41.419Z,0.50
2022-11-18T18:13:06.140Z,0.83
2022-11-18T18:23:12.433Z,0.41
2022-11-18T18:33:18.672Z,0.67
2022-11-18T18:43:25.208Z,0.54
2022-11-18T18:53:32.359Z,0.35
2022-11-18T19:03:38.694Z,0.59
2022-11-18T19:13:44.904Z,0.42
2022-11-18T19:23:51.171Z,0.89
2022-11-18T19:33:57.417Z,0.38
2022-11-18T19:44:05.400Z,0.63
2022-11-18T19:54:11.659Z,0.73
2022-11-18T20:04:18.015Z,0.62
2022-11-18T20:14:24.565Z,0.70
2022-11-18T20:24:30.834Z,0.67
2022-11-18T20:34:37.291Z,0.71
2022-11-18T20:44:43.539Z,0.55
2022-11-18T20:54:49.790Z,0.48
2022-11-18T21:04:56.026Z,0.32
2022-11-18T21:15:02.274Z,0.16
2022-11-18T21:25:11.253Z,0.21
2022-11-18T21:35:17.553Z,0.22
2022-11-18T21:45:24.200Z,0.11
2022-11-18T21:55:30.747Z,0.19
2022-11-18T22:05:37.348Z,0.20
2022-11-18T22:15:43.962Z,-0.16
2022-11-18T22:25:57.273Z,-0.14
2022-11-18T22:36:05.092Z,-0.23
2022-11-18T22:46:11.339Z,-0.29
2022-11-18T22:56:18.381Z,-0.34
2022-11-18T23:06:24.645Z,-0.29
2022-11-18T23:16:34.813Z,-0.38
2022-11-18T23:26:41.440Z,-0.30
2022-11-18T23:36:47.803Z,-0.31
2022-11-18T23:46:54.112Z,-0.40
2022-11-18T23:57:00.387Z,-0.38
